Dayville, Oregon
Current Conditions -  °F | °C
As of 4:15 PM on Sunday 25 Jan 2015 (Local Time) from KGCD Reporting Station
Clear Clear  
Wind Chill: 64°   Ceiling: Unl
Heat Index: 64°   Visibility: 10mi
Dew Point: 33°   Wind: 0mph
Humidity: 32%   Direction: NA
Pressure: 30.24"   Gusts: NA
Location:  44.47°N, 119.54°W
Report Text: KGCD 260015Z AUTO 00000KT 10SM CLR 18/01 A3024 RMK AO2 T01750005
Loading
Personal Weather Stations






























Interactive Weather Map New forecast layout! Learn more

10-Day Weather Forecast

Advertisements
Track Severe Weather on mobile